Time;durP1;ratioP1;P1;durP2;ratioP2;P2;SDS_P1;SDS_P2;PMS_P1;PMS_P2;Temp;Humidity;BMP_temperature;BMP_pressure;BME280_temperature;BME280_humidity;BME280_pressure;Samples;Min_cycle;Max_cycle;Signal;HPM_P1;HPM_P2
2023/04/05 00:00:11;;;;;;;1999.90;999.90;;;23.10;99.90;;;;;;5036015;28;20766;-71
2023/04/05 00:02:39;;;;;;;1999.90;999.90;;;23.20;99.90;;;;;;5033620;28;20040;-71
2023/04/05 00:05:08;;;;;;;1999.90;999.90;;;23.20;99.90;;;;;;5034643;28;20052;-69
2023/04/05 00:07:35;;;;;;;1999.90;999.90;;;23.30;99.90;;;;;;5033722;28;20029;-70
2023/04/05 00:10:03;;;;;;;1999.90;999.90;;;23.30;99.90;;;;;;5036154;28;20086;-69
2023/04/05 00:12:31;;;;;;;1999.90;999.90;;;23.30;99.90;;;;;;5037089;28;20032;-70
2023/04/05 00:14:58;;;;;;;1999.90;999.90;;;23.30;99.90;;;;;;5035500;28;20108;-70
2023/04/05 00:17:26;;;;;;;1999.90;999.90;;;23.20;99.90;;;;;;5035959;28;20064;-71
2023/04/05 00:19:56;;;;;;;1999.90;999.90;;;23.20;99.90;;;;;;5034365;28;20120;-70
2023/04/05 00:22:25;;;;;;;1999.90;999.90;;;23.20;99.90;;;;;;5034461;28;20480;-70
2023/04/05 00:24:52;;;;;;;1999.90;999.90;;;23.20;99.90;;;;;;5040724;28;20115;-69
2023/04/05 00:27:20;;;;;;;1999.90;999.90;;;23.20;99.90;;;;;;5035331;28;20028;-72
2023/04/05 00:29:47;;;;;;;1999.90;999.90;;;23.20;99.90;;;;;;5033065;28;20463;-70
2023/04/05 00:32:14;;;;;;;1999.90;999.90;;;23.20;99.90;;;;;;5033843;28;20031;-71
2023/04/05 00:34:42;;;;;;;1999.90;999.90;;;23.30;99.90;;;;;;5036910;28;20391;-72
2023/04/05 00:37:10;;;;;;;1999.90;999.90;;;23.40;99.90;;;;;;5033643;28;20025;-72
2023/04/05 00:39:41;;;;;;;1999.90;999.90;;;23.50;99.90;;;;;;5041126;28;20235;-69
2023/04/05 00:42:08;;;;;;;1999.90;999.90;;;23.80;99.90;;;;;;5030037;28;20488;-71
2023/04/05 00:44:36;;;;;;;1999.90;999.90;;;24.00;99.90;;;;;;5023873;28;20087;-70
2023/04/05 00:47:07;;;;;;;1999.90;999.90;;;24.20;99.90;;;;;;5023696;28;20056;-69
2023/04/05 00:49:36;;;;;;;1999.90;999.90;;;24.20;99.90;;;;;;5032287;28;20507;-69
2023/04/05 00:52:03;;;;;;;1999.90;999.90;;;24.30;99.90;;;;;;5029162;28;20025;-70
2023/04/05 00:54:34;;;;;;;1999.90;999.90;;;24.40;99.90;;;;;;5034033;28;20071;-71
2023/04/05 00:57:01;;;;;;;1999.90;999.90;;;24.50;99.90;;;;;;5029832;28;20030;-71
2023/04/05 00:59:29;;;;;;;1999.90;999.90;;;24.60;99.90;;;;;;5032332;28;20534;-72
2023/04/05 01:02:00;;;;;;;1999.90;999.90;;;24.70;99.90;;;;;;5027743;28;20075;-69
2023/04/05 01:04:31;;;;;;;1999.90;999.90;;;24.90;99.90;;;;;;5024345;28;20175;-70
2023/04/05 01:07:02;;;;;;;1999.90;999.90;;;25.10;99.90;;;;;;5026604;28;20484;-69
2023/04/05 01:09:47;;;;;;;1999.90;999.90;;;25.30;99.90;;;;;;5030130;28;20030;-69
2023/04/05 01:12:18;;;;;;;1999.90;999.90;;;25.40;99.90;;;;;;5017513;28;20047;-71
2023/04/05 01:14:49;;;;;;;1999.90;999.90;;;25.30;99.90;;;;;;5028739;28;20047;-71
2023/04/05 01:17:21;;;;;;;1999.90;999.90;;;25.20;99.90;;;;;;5026137;28;20506;-69
2023/04/05 01:19:59;;;;;;;1999.90;999.90;;;25.10;99.90;;;;;;5026883;28;20474;-70
2023/04/05 01:22:50;;;;;;;1999.90;999.90;;;25.00;99.90;;;;;;5020670;28;20395;-72
2023/04/05 01:26:02;;;;;;;1999.90;999.90;;;24.90;99.90;;;;;;5031676;28;20048;-70
2023/04/05 01:28:59;;;;;;;1999.90;999.90;;;25.00;99.90;;;;;;5030495;28;20522;-71
2023/04/05 01:31:55;;;;;;;1999.90;999.90;;;25.30;99.90;;;;;;5033594;28;20094;-70
2023/04/05 01:35:03;;;;;;;1999.90;999.90;;;25.80;99.90;;;;;;5021724;28;20128;-69
2023/04/05 01:37:33;;;;;;;1999.90;999.90;;;26.50;99.90;;;;;;5024262;28;20018;-70
2023/04/05 01:40:03;;;;;;;1999.90;999.90;;;26.90;99.50;;;;;;5027766;28;20046;-70
2023/04/05 01:42:30;;;;;;;1999.90;999.90;;;27.20;98.60;;;;;;5036132;28;20033;-70
2023/04/05 01:44:58;;;;;;;1999.90;999.90;;;27.40;99.00;;;;;;5035323;28;20903;-70
2023/04/05 01:47:26;;;;;;;1999.90;999.90;;;27.50;98.90;;;;;;5030002;28;20095;-69
2023/04/05 01:49:53;;;;;;;1999.90;999.90;;;27.80;98.70;;;;;;5026894;28;20041;-71
2023/04/05 01:52:21;;;;;;;1999.90;999.90;;;27.70;97.70;;;;;;5022291;28;20025;-68
2023/04/05 01:54:48;;;;;;;1999.90;999.90;;;27.50;98.10;;;;;;5031016;28;20477;-71
2023/04/05 01:57:15;;;;;;;1999.90;999.90;;;27.20;98.30;;;;;;5025436;28;20036;-68
2023/04/05 01:59:42;;;;;;;1999.90;999.90;;;26.90;98.20;;;;;;5033842;28;20048;-69
2023/04/05 02:02:10;;;;;;;1999.90;999.90;;;26.30;98.80;;;;;;5028573;28;20029;-69
2023/04/05 02:04:37;;;;;;;1999.90;999.90;;;25.70;99.70;;;;;;5019646;28;20810;-69
2023/04/05 02:07:05;;;;;;;1999.90;999.90;;;25.20;99.90;;;;;;5029551;28;20029;-68
2023/04/05 02:09:32;;;;;;;1999.90;999.90;;;24.80;99.90;;;;;;5016377;28;20088;-69
2023/04/05 02:12:00;;;;;;;1999.90;999.90;;;24.50;99.90;;;;;;5023195;28;20082;-69
2023/04/05 02:14:28;;;;;;;1999.90;999.90;;;24.30;99.90;;;;;;5032666;28;20033;-70
2023/04/05 02:16:55;;;;;;;1999.90;999.90;;;24.20;99.90;;;;;;5032201;28;20503;-69
2023/04/05 02:19:24;;;;;;;1999.90;999.90;;;24.30;99.90;;;;;;5026979;28;20035;-69
2023/04/05 02:21:55;;;;;;;1999.90;999.90;;;24.70;99.90;;;;;;5023420;28;20034;-71
2023/04/05 02:24:23;;;;;;;1999.90;999.90;;;25.70;99.90;;;;;;5024802;28;20029;-71
2023/04/05 02:26:50;;;;;;;1999.90;999.90;;;26.40;98.40;;;;;;5032069;28;20021;-70
2023/04/05 02:29:17;;;;;;;1999.90;999.90;;;27.00;98.20;;;;;;5029867;28;20025;-69
2023/04/05 02:31:45;;;;;;;1999.90;999.90;;;27.40;98.10;;;;;;5024073;28;20409;-70
2023/04/05 02:34:12;;;;;;;1999.90;999.90;;;27.80;98.00;;;;;;5027632;28;20060;-70
2023/04/05 02:36:40;;;;;;;1999.90;999.90;;;28.40;96.90;;;;;;5027243;28;20045;-70
2023/04/05 02:39:08;;;;;;;1999.90;999.90;;;29.20;95.90;;;;;;5029172;28;20429;-74
2023/04/05 02:41:36;;;;;;;1999.90;999.90;;;29.50;94.70;;;;;;5028190;28;20041;-72
2023/04/05 02:44:03;;;;;;;1999.90;999.90;;;29.40;94.90;;;;;;5026272;28;20099;-70
2023/04/05 02:46:31;;;;;;;1999.90;999.90;;;29.30;95.40;;;;;;5024857;28;20233;-72
2023/04/05 02:48:58;;;;;;;1999.90;999.90;;;29.00;94.00;;;;;;5028878;28;20021;-70
2023/04/05 02:51:25;;;;;;;1999.90;999.90;;;28.60;94.50;;;;;;5023903;28;20104;-70
2023/04/05 02:53:53;;;;;;;1999.90;999.90;;;28.30;94.60;;;;;;5026118;28;20029;-69
2023/04/05 02:56:20;;;;;;;1999.90;999.90;;;28.10;94.90;;;;;;5023633;28;20115;-68
2023/04/05 02:58:48;;;;;;;1999.90;999.90;;;27.90;95.30;;;;;;5027894;28;20075;-71
2023/04/05 03:01:16;;;;;;;1999.90;999.90;;;27.90;95.30;;;;;;5027340;28;20128;-71
2023/04/05 03:03:44;;;;;;;1999.90;999.90;;;27.90;95.30;;;;;;5027608;28;20033;-72
2023/04/05 03:06:12;;;;;;;1999.90;999.90;;;27.80;95.40;;;;;;5024075;28;20111;-73
2023/04/05 03:08:45;;;;;;;1999.90;999.90;;;27.60;95.30;;;;;;5026487;28;20025;-71
2023/04/05 03:11:13;;;;;;;1999.90;999.90;;;27.60;95.80;;;;;;5029751;28;20116;-74
2023/04/05 03:13:40;;;;;;;1999.90;999.90;;;27.90;95.50;;;;;;5029557;28;20028;-73
2023/04/05 03:16:08;;;;;;;1999.90;999.90;;;28.10;95.40;;;;;;5021643;28;20107;-70
2023/04/05 03:18:35;;;;;;;1999.90;999.90;;;28.40;95.80;;;;;;5022570;28;20034;-71
2023/04/05 03:21:03;;;;;;;1999.90;999.90;;;29.00;95.10;;;;;;5026525;28;20045;-72
2023/04/05 03:23:32;;;;;;;1999.90;999.90;;;28.90;93.90;;;;;;5027949;28;20036;-72
2023/04/05 03:26:01;;;;;;;1999.90;999.90;;;28.70;93.80;;;;;;5025818;28;20060;-70
2023/04/05 03:28:33;;;;;;;1999.90;999.90;;;29.10;93.90;;;;;;5022132;28;21042;-73
2023/04/05 03:31:00;;;;;;;1999.90;999.90;;;29.50;93.40;;;;;;5028806;28;20025;-70
2023/04/05 03:33:28;;;;;;;1999.90;999.90;;;29.70;93.10;;;;;;5022099;28;20037;-73
2023/04/05 03:35:55;;;;;;;1999.90;999.90;;;29.40;93.40;;;;;;5025100;28;20408;-71
2023/04/05 03:38:22;;;;;;;1999.90;999.90;;;29.50;93.30;;;;;;5021610;28;20040;-73
2023/04/05 03:40:50;;;;;;;1999.90;999.90;;;29.70;93.50;;;;;;5028234;28;20443;-73
2023/04/05 03:43:17;;;;;;;1999.90;999.90;;;29.90;93.70;;;;;;5025293;28;20021;-72
2023/04/05 03:45:44;;;;;;;1999.90;999.90;;;30.00;93.30;;;;;;5019566;28;20038;-72
2023/04/05 03:48:12;;;;;;;1999.90;999.90;;;30.20;93.30;;;;;;5029959;28;20029;-73
2023/04/05 03:50:39;;;;;;;1999.90;999.90;;;30.50;93.10;;;;;;5017568;28;20124;-71
2023/04/05 03:53:07;;;;;;;1999.90;999.90;;;30.70;92.20;;;;;;5025682;28;20033;-71
2023/04/05 03:55:34;;;;;;;1999.90;999.90;;;30.80;92.40;;;;;;5027164;28;20083;-71
2023/04/05 03:58:01;;;;;;;1999.90;999.90;;;30.60;92.90;;;;;;5021969;28;20022;-71
2023/04/05 04:00:28;;;;;;;1999.90;999.90;;;30.70;92.50;;;;;;5021767;28;20498;-72
2023/04/05 04:02:56;;;;;;;1999.90;999.90;;;30.70;91.90;;;;;;5023897;28;20030;-72
2023/04/05 04:05:23;;;;;;;1999.90;999.90;;;30.60;91.80;;;;;;5023471;28;20424;-70
2023/04/05 04:07:50;;;;;;;1999.90;999.90;;;30.40;91.50;;;;;;5021625;28;20017;-71
2023/04/05 04:10:18;;;;;;;1999.90;999.90;;;29.60;92.10;;;;;;5017438;28;20049;-70
2023/04/05 04:12:45;;;;;;;1999.90;999.90;;;28.90;92.60;;;;;;5023944;28;20116;-70
2023/04/05 04:15:13;;;;;;;1999.90;999.90;;;28.70;93.60;;;;;;5031318;28;20037;-70
2023/04/05 04:17:40;;;;;;;1999.90;999.90;;;28.80;93.50;;;;;;5028965;28;20110;-70
2023/04/05 04:20:11;;;;;;;1999.90;999.90;;;28.60;93.60;;;;;;5031605;28;20498;-70
2023/04/05 04:22:39;;;;;;;1999.90;999.90;;;28.10;93.90;;;;;;5025826;28;20025;-70
2023/04/05 04:25:11;;;;;;;1999.90;999.90;;;27.70;94.40;;;;;;5028059;28;20036;-70
2023/04/05 04:27:41;;;;;;;1999.90;999.90;;;27.70;94.80;;;;;;5028571;28;20028;-70
2023/04/05 04:30:14;;;;;;;1999.90;999.90;;;28.00;95.30;;;;;;5024968;28;20030;-71
2023/04/05 04:32:50;;;;;;;1999.90;999.90;;;28.30;94.20;;;;;;5023977;28;21167;-71
2023/04/05 04:35:19;;;;;;;1999.90;999.90;;;28.70;93.90;;;;;;5029122;28;20038;-71
2023/04/05 04:37:56;;;;;;;1999.90;999.90;;;29.00;93.90;;;;;;5030086;28;20037;-70
2023/04/05 04:40:37;;;;;;;1999.90;999.90;;;29.00;93.70;;;;;;5033074;28;20029;-71
2023/04/05 04:43:13;;;;;;;1999.90;999.90;;;29.00;93.50;;;;;;5027640;28;20025;-70
2023/04/05 04:45:41;;;;;;;1999.90;999.90;;;28.50;93.80;;;;;;5030641;28;20111;-70
2023/04/05 04:48:08;;;;;;;1999.90;999.90;;;28.00;94.20;;;;;;5029060;28;20511;-70
2023/04/05 04:50:36;;;;;;;1999.90;999.90;;;27.60;94.30;;;;;;5033920;28;21765;-69
2023/04/05 04:53:03;;;;;;;1999.90;999.90;;;27.40;94.70;;;;;;5031535;28;20045;-70
2023/04/05 04:55:32;;;;;;;1999.90;999.90;;;27.10;95.10;;;;;;5032917;28;20079;-70
2023/04/05 04:57:59;;;;;;;1999.90;999.90;;;26.90;95.70;;;;;;5030116;28;20528;-70
2023/04/05 05:00:27;;;;;;;1999.90;999.90;;;26.80;96.20;;;;;;5033983;28;20034;-70
2023/04/05 05:02:56;;;;;;;1999.90;999.90;;;26.60;96.30;;;;;;5028627;28;20021;-68
2023/04/05 05:05:23;;;;;;;1999.90;999.90;;;26.40;96.30;;;;;;5026747;28;20038;-69
2023/04/05 05:07:51;;;;;;;1999.90;999.90;;;26.20;96.40;;;;;;5032188;28;20026;-69
2023/04/05 05:10:19;;;;;;;1999.90;999.90;;;26.00;96.90;;;;;;5031520;28;20112;-69
2023/04/05 05:12:50;;;;;;;1999.90;999.90;;;26.00;97.20;;;;;;5031763;28;20375;-69
2023/04/05 05:15:19;;;;;;;1999.90;999.90;;;25.90;97.10;;;;;;5032544;28;20095;-69
2023/04/05 05:17:51;;;;;;;1999.90;999.90;;;26.00;96.90;;;;;;5028889;28;20093;-70
2023/04/05 05:20:19;;;;;;;1999.90;999.90;;;26.10;97.20;;;;;;5038514;28;20078;-71
2023/04/05 05:22:46;;;;;;;1999.90;999.90;;;26.30;97.10;;;;;;5028766;28;20468;-70
2023/04/05 05:25:13;;;;;;;1999.90;999.90;;;26.70;97.50;;;;;;5026503;28;20418;-71
2023/04/05 05:27:41;;;;;;;1999.90;999.90;;;27.00;96.60;;;;;;5027143;28;20029;-71
2023/04/05 05:30:09;;;;;;;1999.90;999.90;;;27.20;96.80;;;;;;5026436;28;20810;-71
2023/04/05 05:32:36;;;;;;;1999.90;999.90;;;27.30;96.00;;;;;;5026496;28;20033;-70
2023/04/05 05:35:06;;;;;;;1999.90;999.90;;;27.30;95.90;;;;;;5029265;28;20029;-70
2023/04/05 05:37:35;;;;;;;1999.90;999.90;;;27.30;96.00;;;;;;5028982;28;20146;-71
2023/04/05 05:40:05;;;;;;;1999.90;999.90;;;27.20;96.00;;;;;;5030495;28;20404;-70
2023/04/05 05:42:33;;;;;;;1999.90;999.90;;;27.20;96.10;;;;;;5026182;28;20060;-71
2023/04/05 05:45:05;;;;;;;1999.90;999.90;;;27.10;96.10;;;;;;5027560;28;20037;-71
2023/04/05 05:47:32;;;;;;;1999.90;999.90;;;27.20;96.50;;;;;;5026522;28;20102;-71
2023/04/05 05:50:00;;;;;;;1999.90;999.90;;;27.20;96.60;;;;;;5027740;28;20109;-72
2023/04/05 05:52:27;;;;;;;1999.90;999.90;;;27.20;96.60;;;;;;5026790;28;20487;-70
2023/04/05 05:54:55;;;;;;;1999.90;999.90;;;27.20;96.50;;;;;;5028531;28;20022;-69
2023/04/05 05:57:22;;;;;;;1999.90;999.90;;;27.20;96.60;;;;;;5025238;28;21633;-70
2023/04/05 05:59:49;;;;;;;1999.90;999.90;;;27.10;96.40;;;;;;5035523;28;20083;-69
2023/04/05 06:02:17;;;;;;;1999.90;999.90;;;27.00;96.50;;;;;;5023964;28;20102;-69
2023/04/05 06:04:44;;;;;;;1999.90;999.90;;;27.00;96.40;;;;;;5028850;28;20033;-69
2023/04/05 06:07:12;;;;;;;1999.90;999.90;;;26.80;96.30;;;;;;5027139;28;20021;-70
2023/04/05 06:09:39;;;;;;;1999.90;999.90;;;26.70;96.50;;;;;;5021885;28;20527;-70
2023/04/05 06:12:07;;;;;;;1999.90;999.90;;;26.70;96.50;;;;;;5023545;28;20083;-70
2023/04/05 06:14:34;;;;;;;1999.90;999.90;;;26.50;96.30;;;;;;5026916;28;20075;-70
2023/04/05 06:17:02;;;;;;;1999.90;999.90;;;26.50;96.50;;;;;;5025505;28;20020;-71
2023/04/05 06:19:29;;;;;;;1999.90;999.90;;;26.40;96.60;;;;;;5022661;28;20065;-70
2023/04/05 06:21:59;;;;;;;1999.90;999.90;;;26.30;96.60;;;;;;5023628;28;20149;-70
2023/04/05 06:24:30;;;;;;;1999.90;999.90;;;26.10;97.30;;;;;;5025683;28;20022;-70
2023/04/05 06:26:58;;;;;;;1999.90;999.90;;;26.10;97.80;;;;;;5030912;28;20044;-70
2023/04/05 06:29:26;;;;;;;1999.90;999.90;;;26.00;98.20;;;;;;5029066;28;20033;-69
2023/04/05 06:31:54;;;;;;;1999.90;999.90;;;25.90;98.50;;;;;;5026612;28;20033;-69
2023/04/05 06:34:21;;;;;;;1999.90;999.90;;;25.90;98.60;;;;;;5030770;28;20029;-69
2023/04/05 06:36:49;;;;;;;1999.90;999.90;;;25.80;98.50;;;;;;5028147;28;20039;-69
2023/04/05 06:39:16;;;;;;;1999.90;999.90;;;25.50;98.80;;;;;;5027130;28;20095;-71
2023/04/05 06:41:44;;;;;;;1999.90;999.90;;;25.20;99.00;;;;;;5027684;28;20030;-70
2023/04/05 06:44:11;;;;;;;1999.90;999.90;;;25.00;99.10;;;;;;5027641;28;22087;-71
2023/04/05 06:46:39;;;;;;;1999.90;999.90;;;24.80;99.30;;;;;;5033724;28;20037;-70
2023/04/05 06:49:06;;;;;;;1999.90;999.90;;;24.70;99.50;;;;;;5038476;28;20103;-73
2023/04/05 06:51:33;;;;;;;1999.90;999.90;;;24.50;99.70;;;;;;5026361;28;20383;-71
2023/04/05 06:54:01;;;;;;;1999.90;999.90;;;24.40;99.80;;;;;;5034524;28;20071;-73
2023/04/05 06:56:28;;;;;;;1999.90;999.90;;;24.40;99.80;;;;;;5028814;28;20025;-70
2023/04/05 06:58:57;;;;;;;1999.90;999.90;;;24.40;99.90;;;;;;5032858;28;20387;-71
2023/04/05 07:01:26;;;;;;;1999.90;999.90;;;24.30;99.60;;;;;;5034930;28;20083;-70
2023/04/05 07:03:54;;;;;;;1999.90;999.90;;;24.20;99.60;;;;;;5036000;28;20041;-70
2023/04/05 07:06:22;;;;;;;1999.90;999.90;;;24.20;99.80;;;;;;5032704;28;20029;-70
2023/04/05 07:08:51;;;;;;;1999.90;999.90;;;24.20;99.90;;;;;;5033248;28;20021;-72
2023/04/05 07:11:18;;;;;;;1999.90;999.90;;;24.20;99.90;;;;;;5032738;28;20022;-70
2023/04/05 07:13:46;;;;;;;1999.90;999.90;;;24.20;99.90;;;;;;5029272;28;20438;-69
2023/04/05 07:16:13;;;;;;;1999.90;999.90;;;24.10;99.90;;;;;;5030182;28;20108;-71
2023/04/05 07:18:40;;;;;;;1999.90;999.90;;;24.00;99.90;;;;;;5023956;28;20400;-69
2023/04/05 07:21:08;;;;;;;1999.90;999.90;;;23.90;99.90;;;;;;5026825;28;20087;-71
2023/04/05 07:23:35;;;;;;;1999.90;999.90;;;23.80;99.90;;;;;;5021485;28;20105;-70
2023/04/05 07:26:07;;;;;;;1999.90;999.90;;;23.60;99.90;;;;;;5030999;28;20026;-71
2023/04/05 07:28:35;;;;;;;1999.90;999.90;;;23.50;99.90;;;;;;5025875;28;20091;-70
2023/04/05 07:31:05;;;;;;;1999.90;999.90;;;23.40;99.90;;;;;;5030239;28;21777;-69
2023/04/05 07:33:33;;;;;;;1999.90;999.90;;;23.30;99.90;;;;;;5032753;28;20041;-70
2023/04/05 07:36:02;;;;;;;1999.90;999.90;;;23.20;99.90;;;;;;5025185;28;20017;-71
2023/04/05 07:38:29;;;;;;;1999.90;999.90;;;23.10;99.90;;;;;;5024691;28;20032;-71
2023/04/05 07:40:57;;;;;;;1999.90;999.90;;;23.00;99.90;;;;;;5020932;28;20046;-69
2023/04/05 07:43:24;;;;;;;1999.90;999.90;;;23.00;99.90;;;;;;5031026;28;20030;-69
2023/04/05 07:45:52;;;;;;;1999.90;999.90;;;22.90;99.90;;;;;;5027172;28;20036;-70
2023/04/05 07:48:20;;;;;;;1999.90;999.90;;;22.80;99.90;;;;;;5022810;28;21911;-70
2023/04/05 07:50:48;;;;;;;1999.90;999.90;;;22.80;99.90;;;;;;5018323;28;20034;-70
2023/04/05 07:53:15;;;;;;;1999.90;999.90;;;22.70;99.90;;;;;;5024425;28;20021;-70
2023/04/05 07:55:43;;;;;;;1999.90;999.90;;;22.70;99.90;;;;;;5029726;28;20487;-70
2023/04/05 07:58:10;;;;;;;1999.90;999.90;;;22.60;99.90;;;;;;5033640;28;20026;-70
2023/04/05 08:00:38;;;;;;;1999.90;999.90;;;22.60;99.90;;;;;;5029033;28;20107;-68
2023/04/05 08:03:05;;;;;;;1999.90;999.90;;;22.50;99.90;;;;;;5031468;28;20029;-70
2023/04/05 08:05:33;;;;;;;1999.90;999.90;;;22.50;99.90;;;;;;5037738;28;20029;-69
2023/04/05 08:08:00;;;;;;;1999.90;999.90;;;22.40;99.90;;;;;;5032551;28;20483;-69
2023/04/05 08:10:28;;;;;;;1999.90;999.90;;;22.30;99.90;;;;;;5033424;28;20025;-70
2023/04/05 08:12:55;;;;;;;1999.90;999.90;;;22.30;99.90;;;;;;5036561;28;20029;-69
2023/04/05 08:15:22;;;;;;;1999.90;999.90;;;22.20;99.90;;;;;;5037923;28;20022;-70
2023/04/05 08:17:50;;;;;;;1999.90;999.90;;;22.20;99.90;;;;;;5028838;28;20440;-70
2023/04/05 08:20:17;;;;;;;1999.90;999.90;;;22.10;99.90;;;;;;5031053;28;20047;-69
2023/04/05 08:22:44;;;;;;;1999.90;999.90;;;22.00;99.90;;;;;;5036095;28;20519;-71
2023/04/05 08:25:12;;;;;;;1999.90;999.90;;;21.80;99.90;;;;;;5038711;28;20079;-71
2023/04/05 08:27:40;;;;;;;1999.90;999.90;;;21.70;99.90;;;;;;5034624;28;20029;-72
2023/04/05 08:30:08;;;;;;;1999.90;999.90;;;21.50;99.90;;;;;;5033460;28;20120;-72
2023/04/05 08:32:36;;;;;;;1999.90;999.90;;;21.40;99.90;;;;;;5035427;28;20036;-71
2023/04/05 08:35:03;;;;;;;1999.90;999.90;;;21.30;99.90;;;;;;5029989;28;20027;-70
2023/04/05 08:37:34;;;;;;;1999.90;999.90;;;21.20;99.90;;;;;;5032519;28;20040;-71
2023/04/05 08:40:04;;;;;;;1999.90;999.90;;;21.00;99.90;;;;;;5034323;28;20083;-71
2023/04/05 08:43:01;;;;;;;1999.90;999.90;;;21.00;99.90;;;;;;5032817;28;20031;-70
2023/04/05 08:45:28;;;;;;;1999.90;999.90;;;20.90;99.90;;;;;;5039366;28;20522;-70
2023/04/05 08:47:56;;;;;;;1999.90;999.90;;;20.90;99.90;;;;;;5036439;28;20068;-70
2023/04/05 08:50:26;;;;;;;1999.90;999.90;;;20.80;99.90;;;;;;5034943;28;20028;-72
2023/04/05 08:52:53;;;;;;;1999.90;999.90;;;20.80;99.90;;;;;;5031576;28;20117;-68
2023/04/05 08:55:21;;;;;;;1999.90;999.90;;;20.70;99.90;;;;;;5030589;28;20025;-69
2023/04/05 08:57:53;;;;;;;1999.90;999.90;;;20.70;99.90;;;;;;5035954;28;20509;-70
2023/04/05 09:00:20;;;;;;;1999.90;999.90;;;20.70;99.90;;;;;;5040092;28;20021;-71
2023/04/05 09:02:53;;;;;;;1999.90;999.90;;;20.60;99.90;;;;;;5033235;28;20100;-71
2023/04/05 09:05:23;;;;;;;1999.90;999.90;;;20.50;99.90;;;;;;5035544;28;20018;-70
2023/04/05 09:07:52;;;;;;;1999.90;999.90;;;20.50;99.90;;;;;;5031787;28;20378;-70
2023/04/05 09:10:20;;;;;;;1999.90;999.90;;;20.50;99.90;;;;;;5038478;28;20022;-70
2023/04/05 09:12:48;;;;;;;1999.90;999.90;;;20.40;99.90;;;;;;5030710;28;20120;-72
2023/04/05 09:15:15;;;;;;;1999.90;999.90;;;20.30;99.90;;;;;;5031684;28;20388;-70
2023/04/05 09:17:44;;;;;;;1999.90;999.90;;;20.30;99.90;;;;;;5030056;28;20164;-72
2023/04/05 09:20:11;;;;;;;1999.90;999.90;;;20.20;99.90;;;;;;5038629;28;20525;-72
2023/04/05 09:22:45;;;;;;;1999.90;999.90;;;20.20;99.90;;;;;;5031686;28;20064;-70
2023/04/05 09:25:39;;;;;;;1999.90;999.90;;;20.10;99.90;;;;;;5031273;28;20452;-71
2023/04/05 09:28:11;;;;;;;1999.90;999.90;;;20.10;99.90;;;;;;5032682;28;20112;-71
2023/04/05 09:30:45;;;;;;;1999.90;999.90;;;20.00;99.90;;;;;;5027673;28;20030;-70
2023/04/05 09:33:19;;;;;;;1999.90;999.90;;;20.00;99.90;;;;;;5032901;28;20430;-70
2023/04/05 09:35:50;;;;;;;1999.90;999.90;;;19.90;99.90;;;;;;5031255;28;20112;-70
2023/04/05 09:38:17;;;;;;;1999.90;999.90;;;19.80;99.90;;;;;;5028508;28;20018;-72
2023/04/05 09:40:47;;;;;;;1999.90;999.90;;;19.80;99.90;;;;;;5027393;28;20045;-70
2023/04/05 09:43:43;;;;;;;1999.90;999.90;;;19.70;99.90;;;;;;5032522;28;20231;-71
2023/04/05 09:46:31;;;;;;;1999.90;999.90;;;19.60;99.90;;;;;;5029997;28;20049;-70
2023/04/05 09:49:03;;;;;;;1999.90;999.90;;;19.60;99.90;;;;;;5035951;28;20033;-70
2023/04/05 09:51:35;;;;;;;1999.90;999.90;;;19.50;99.90;;;;;;5033975;28;20061;-69
2023/04/05 09:54:03;;;;;;;1999.90;999.90;;;19.40;99.90;;;;;;5037875;28;20087;-69
2023/04/05 09:56:39;;;;;;;1999.90;999.90;;;19.40;99.90;;;;;;5033527;28;20041;-69
2023/04/05 09:59:12;;;;;;;1999.90;999.90;;;19.40;99.90;;;;;;5035419;28;20487;-69
2023/04/05 10:01:44;;;;;;;1999.90;999.90;;;19.30;99.90;;;;;;5037935;28;20121;-72
2023/04/05 10:04:11;;;;;;;1999.90;999.90;;;19.20;99.90;;;;;;5037089;28;20033;-70
2023/04/05 10:06:39;;;;;;;1999.90;999.90;;;19.30;99.90;;;;;;5035053;28;20037;-70
2023/04/05 10:09:09;;;;;;;1999.90;999.90;;;19.20;99.90;;;;;;5036840;28;20479;-69
2023/04/05 10:11:37;;;;;;;1999.90;999.90;;;19.20;99.90;;;;;;5031896;28;20073;-69
2023/04/05 10:14:07;;;;;;;1999.90;999.90;;;19.10;99.90;;;;;;5037626;28;20508;-69
2023/04/05 10:16:46;;;;;;;1999.90;999.90;;;19.10;99.90;;;;;;5029568;28;20037;-69
2023/04/05 10:19:26;;;;;;;1999.90;999.90;;;19.10;99.90;;;;;;5033244;28;20033;-69
2023/04/05 10:21:56;;;;;;;1999.90;999.90;;;19.00;99.90;;;;;;5041244;28;20845;-69
2023/04/05 10:25:07;;;;;;;1999.90;999.90;;;19.00;99.90;;;;;;5032103;28;20143;-68
2023/04/05 10:27:46;;;;;;;1999.90;999.90;;;18.90;99.90;;;;;;5044711;28;20044;-69
2023/04/05 10:30:15;;;;;;;1999.90;999.90;;;18.90;99.90;;;;;;5047722;28;20020;-69
2023/04/05 10:33:24;;;;;;;1999.90;999.90;;;18.90;99.90;;;;;;5036893;28;20056;-69
2023/04/05 10:36:16;;;;;;;1999.90;999.90;;;18.80;99.90;;;;;;5043713;28;20028;-70
2023/04/05 10:38:56;;;;;;;1999.90;999.90;;;18.80;99.90;;;;;;5029535;28;20060;-68
2023/04/05 10:41:23;;;;;;;1999.90;999.90;;;18.80;99.90;;;;;;5029659;28;20598;-69
2023/04/05 10:43:55;;;;;;;1999.90;999.90;;;18.70;99.90;;;;;;5030054;28;20107;-70
2023/04/05 10:46:23;;;;;;;1999.90;999.90;;;18.70;99.90;;;;;;5034210;28;20045;-69
2023/04/05 10:49:42;;;;;;;1999.90;999.90;;;18.70;99.90;;;;;;5032916;28;20112;-69
2023/04/05 10:52:10;;;;;;;1999.90;999.90;;;18.60;99.90;;;;;;5022889;28;20041;-68
2023/04/05 10:54:37;;;;;;;1999.90;999.90;;;18.60;99.90;;;;;;5030591;28;20033;-68
2023/04/05 10:57:07;;;;;;;1999.90;999.90;;;18.60;99.90;;;;;;5033761;28;20384;-69
2023/04/05 10:59:39;;;;;;;1999.90;999.90;;;18.50;99.90;;;;;;5031571;28;20037;-69
2023/04/05 11:02:08;;;;;;;1999.90;999.90;;;18.50;99.90;;;;;;5030952;28;20035;-69
2023/04/05 11:04:35;;;;;;;1999.90;999.90;;;18.50;99.90;;;;;;5030137;28;20476;-69
2023/04/05 11:07:17;;;;;;;1999.90;999.90;;;18.40;99.90;;;;;;5032396;28;20028;-69
2023/04/05 11:10:02;;;;;;;1999.90;999.90;;;18.40;99.90;;;;;;5040450;28;20032;-69
2023/04/05 11:12:56;;;;;;;1999.90;999.90;;;18.30;99.90;;;;;;5034843;28;20032;-69
2023/04/05 11:15:26;;;;;;;1999.90;999.90;;;18.30;99.90;;;;;;5039219;28;20033;-69
2023/04/05 11:18:07;;;;;;;1999.90;999.90;;;18.30;99.90;;;;;;5032848;28;20435;-69
2023/04/05 11:20:41;;;;;;;1999.90;999.90;;;18.30;99.90;;;;;;5040534;28;20045;-69
2023/04/05 11:23:09;;;;;;;1999.90;999.90;;;18.20;99.90;;;;;;5035880;28;20541;-69
2023/04/05 11:25:40;;;;;;;1999.90;999.90;;;18.20;99.90;;;;;;5039299;28;20045;-70
2023/04/05 11:28:08;;;;;;;1999.90;999.90;;;18.20;99.90;;;;;;5031748;28;20025;-70
2023/04/05 11:30:57;;;;;;;1999.90;999.90;;;18.20;99.90;;;;;;5039754;28;20502;-69
2023/04/05 11:33:57;;;;;;;1999.90;999.90;;;18.10;99.90;;;;;;5027995;28;20147;-69
2023/04/05 11:36:44;;;;;;;1999.90;999.90;;;18.10;99.90;;;;;;5031923;28;20033;-68
2023/04/05 11:39:21;;;;;;;1999.90;999.90;;;18.00;99.90;;;;;;5032060;28;20028;-69
2023/04/05 11:42:01;;;;;;;1999.90;999.90;;;18.00;99.90;;;;;;5027589;28;20075;-69
2023/04/05 11:44:38;;;;;;;1999.90;999.90;;;18.00;99.90;;;;;;5027081;28;20081;-70
2023/04/05 11:47:08;;;;;;;1999.90;999.90;;;18.00;99.90;;;;;;5032151;28;20128;-70
2023/04/05 11:49:35;;;;;;;1999.90;999.90;;;18.00;99.90;;;;;;5029414;28;20036;-70
2023/04/05 11:52:11;;;;;;;1999.90;999.90;;;17.90;99.90;;;;;;5031368;28;20559;-69
2023/04/05 11:54:44;;;;;;;1999.90;999.90;;;17.90;99.90;;;;;;5035557;28;20064;-69
2023/04/05 11:57:13;;;;;;;1999.90;999.90;;;17.90;99.90;;;;;;5031279;28;20037;-68
2023/04/05 11:59:45;;;;;;;1999.90;999.90;;;17.90;99.90;;;;;;5030844;28;20071;-70
2023/04/05 12:02:13;;;;;;;1999.90;999.90;;;17.80;99.90;;;;;;5041715;28;20021;-69
2023/04/05 12:04:40;;;;;;;1999.90;999.90;;;17.80;99.90;;;;;;5027365;28;20025;-69
2023/04/05 12:07:18;;;;;;;1999.90;999.90;;;17.70;99.90;;;;;;5028451;28;20160;-70
2023/04/05 12:10:01;;;;;;;1999.90;999.90;;;17.80;99.90;;;;;;5035893;28;20037;-70
2023/04/05 12:12:37;;;;;;;1999.90;999.90;;;17.70;99.90;;;;;;5033334;28;20084;-69
2023/04/05 12:15:07;;;;;;;1999.90;999.90;;;17.70;99.90;;;;;;5027709;28;20013;-68